createdAt,value
2019-05-17T00:02:00.119Z,99.90
2019-05-17T00:04:40.633Z,99.90
2019-05-17T00:07:21.273Z,99.90
2019-05-17T00:10:01.954Z,99.90
2019-05-17T00:12:42.807Z,99.90
2019-05-17T00:15:23.400Z,99.90
2019-05-17T00:18:06.457Z,99.90
2019-05-17T00:20:47.041Z,99.90
2019-05-17T00:23:27.449Z,99.90
2019-05-17T00:26:08.072Z,99.90
2019-05-17T00:28:49.284Z,99.90
2019-05-17T00:31:29.948Z,99.90
2019-05-17T00:34:10.999Z,99.90
2019-05-17T00:36:51.949Z,99.90
2019-05-17T00:39:32.932Z,99.90
2019-05-17T00:42:13.646Z,99.90
2019-05-17T00:44:56.431Z,99.90
2019-05-17T00:47:37.522Z,99.90
2019-05-17T00:50:18.628Z,99.90
2019-05-17T00:52:59.643Z,99.90
2019-05-17T00:55:39.803Z,99.90
2019-05-17T00:58:20.392Z,99.90
2019-05-17T01:01:01.266Z,99.90
2019-05-17T01:03:41.677Z,99.90
2019-05-17T01:06:22.120Z,99.90
2019-05-17T01:09:04.150Z,99.90
2019-05-17T01:11:47.349Z,99.90
2019-05-17T01:14:27.989Z,99.90
2019-05-17T01:17:08.248Z,99.90
2019-05-17T01:19:48.951Z,99.90
2019-05-17T01:22:29.464Z,99.90
2019-05-17T01:25:10.264Z,99.90
2019-05-17T01:27:51.481Z,99.90
2019-05-17T01:30:31.928Z,99.90
2019-05-17T01:33:12.506Z,99.90
2019-05-17T01:35:53.369Z,99.90
2019-05-17T01:38:34.014Z,99.90
2019-05-17T01:41:14.588Z,99.90
2019-05-17T01:43:56.939Z,99.90
2019-05-17T01:46:37.467Z,99.90
2019-05-17T01:49:18.020Z,99.90
2019-05-17T01:51:58.747Z,99.90
2019-05-17T01:54:40.079Z,99.90
2019-05-17T01:57:20.316Z,99.90
2019-05-17T02:00:01.521Z,99.90
2019-05-17T02:02:47.137Z,99.90
2019-05-17T02:05:27.544Z,99.90
2019-05-17T02:08:08.588Z,99.90
2019-05-17T02:10:49.418Z,99.90
2019-05-17T02:13:29.640Z,99.90
2019-05-17T02:16:10.167Z,99.90
2019-05-17T02:18:50.407Z,99.90
2019-05-17T02:21:30.719Z,99.90
2019-05-17T02:24:11.532Z,99.90
2019-05-17T02:26:52.033Z,99.90
2019-05-17T02:29:32.416Z,99.90
2019-05-17T02:32:13.357Z,99.90
2019-05-17T02:34:53.932Z,99.90
2019-05-17T02:37:34.704Z,99.90
2019-05-17T02:40:15.632Z,99.90
2019-05-17T02:42:56.430Z,99.90
2019-05-17T02:45:36.917Z,99.90
2019-05-17T02:48:17.469Z,99.90
2019-05-17T02:50:58.117Z,99.90
2019-05-17T02:53:38.519Z,99.90
2019-05-17T02:56:19.213Z,99.90
2019-05-17T02:59:03.298Z,99.90
2019-05-17T03:01:44.290Z,99.90
2019-05-17T03:04:24.769Z,99.90
2019-05-17T03:07:05.179Z,99.90
2019-05-17T03:09:45.704Z,99.90
2019-05-17T03:12:26.792Z,99.90
2019-05-17T03:15:07.352Z,99.90
2019-05-17T03:17:47.966Z,99.90
2019-05-17T03:20:28.628Z,99.90
2019-05-17T03:23:12.444Z,99.90
2019-05-17T03:25:52.633Z,99.90
2019-05-17T03:28:33.997Z,99.90
2019-05-17T03:31:17.051Z,99.90
2019-05-17T03:33:57.449Z,99.90
2019-05-17T03:36:37.877Z,99.90
2019-05-17T03:39:18.478Z,99.90
2019-05-17T03:41:58.910Z,99.90
2019-05-17T03:44:39.441Z,99.90
2019-05-17T03:47:22.673Z,99.90
2019-05-17T03:50:03.302Z,99.90
2019-05-17T03:52:44.861Z,99.90
2019-05-17T03:55:25.761Z,99.90
2019-05-17T03:58:06.672Z,99.90
2019-05-17T04:00:47.113Z,99.90
2019-05-17T04:03:30.981Z,99.90
2019-05-17T04:06:13.058Z,99.90
2019-05-17T04:08:52.834Z,99.90
2019-05-17T04:11:36.571Z,99.90
2019-05-17T04:14:15.731Z,99.90
2019-05-17T04:16:56.506Z,99.90
2019-05-17T04:19:37.393Z,99.90
2019-05-17T04:22:18.585Z,99.90
2019-05-17T04:25:02.786Z,99.90
2019-05-17T04:27:43.633Z,99.90
2019-05-17T04:30:23.996Z,99.90
2019-05-17T04:33:04.491Z,99.90
2019-05-17T04:35:44.943Z,99.90
2019-05-17T04:38:25.497Z,99.90
2019-05-17T04:41:06.219Z,99.90
2019-05-17T04:43:47.286Z,99.90
2019-05-17T04:46:27.525Z,99.90
2019-05-17T04:49:08.097Z,99.90
2019-05-17T04:51:48.675Z,99.90
2019-05-17T04:54:29.438Z,99.90
2019-05-17T04:57:12.869Z,99.90
2019-05-17T04:59:52.630Z,99.90
2019-05-17T05:02:33.532Z,99.90
2019-05-17T05:05:14.395Z,99.90
2019-05-17T05:07:54.618Z,99.90
2019-05-17T05:10:38.504Z,99.90
2019-05-17T05:13:17.645Z,99.90
2019-05-17T05:15:58.159Z,99.90
2019-05-17T05:18:41.934Z,99.90
2019-05-17T05:21:22.999Z,99.90
2019-05-17T05:24:03.951Z,99.90
2019-05-17T05:26:44.745Z,99.90
2019-05-17T05:29:25.719Z,99.90
2019-05-17T05:32:06.294Z,99.90
2019-05-17T05:34:46.622Z,99.90
2019-05-17T05:37:27.229Z,99.90
2019-05-17T05:40:07.567Z,99.90
2019-05-17T05:42:48.382Z,99.90
2019-05-17T05:45:28.737Z,99.90
2019-05-17T05:48:09.654Z,99.90
2019-05-17T05:50:52.100Z,99.90
2019-05-17T05:53:32.697Z,99.90
2019-05-17T05:56:13.479Z,99.90
2019-05-17T05:58:53.750Z,99.90
2019-05-17T06:01:34.274Z,99.90
2019-05-17T06:04:14.821Z,99.90
2019-05-17T06:06:55.300Z,99.90
2019-05-17T06:09:35.813Z,99.90
2019-05-17T06:12:23.768Z,99.90
2019-05-17T06:14:58.616Z,99.90
2019-05-17T06:17:39.242Z,99.90
2019-05-17T06:20:22.303Z,99.90
2019-05-17T06:23:02.656Z,99.90
2019-05-17T06:25:43.886Z,99.90
2019-05-17T06:28:25.148Z,99.90
2019-05-17T06:31:05.698Z,99.90
2019-05-17T06:33:46.520Z,99.90
2019-05-17T06:36:27.083Z,99.90
2019-05-17T06:39:07.596Z,99.90
2019-05-17T06:41:49.100Z,99.90
2019-05-17T06:44:32.281Z,99.90
2019-05-17T06:47:12.943Z,99.90
2019-05-17T06:49:54.201Z,99.90
2019-05-17T06:52:34.927Z,99.90
2019-05-17T06:55:15.684Z,99.90
2019-05-17T06:57:56.516Z,99.90
2019-05-17T07:00:37.191Z,99.90
2019-05-17T07:03:19.759Z,99.90
2019-05-17T07:06:01.776Z,99.90
2019-05-17T07:08:42.706Z,99.90
2019-05-17T07:11:23.760Z,99.90
2019-05-17T07:14:04.295Z,99.90
2019-05-17T07:16:44.968Z,99.90
2019-05-17T07:19:25.456Z,99.90
2019-05-17T07:22:06.417Z,99.90
2019-05-17T07:24:46.851Z,99.90
2019-05-17T07:27:40.683Z,99.90
2019-05-17T07:30:10.312Z,99.90
2019-05-17T07:32:50.853Z,99.90
2019-05-17T07:35:31.604Z,99.90
2019-05-17T07:38:12.328Z,99.90
2019-05-17T07:40:52.876Z,99.90
2019-05-17T07:43:33.293Z,99.90
2019-05-17T07:46:13.621Z,99.90
2019-05-17T07:48:54.160Z,99.90
2019-05-17T07:51:35.184Z,99.90
2019-05-17T07:54:15.406Z,99.90
2019-05-17T07:56:55.849Z,99.90
2019-05-17T07:59:36.541Z,99.90
2019-05-17T08:02:16.981Z,99.90
2019-05-17T08:04:57.368Z,99.90
2019-05-17T08:07:40.186Z,99.90
2019-05-17T08:10:20.529Z,99.90
2019-05-17T08:13:00.827Z,99.90
2019-05-17T08:15:41.672Z,99.90
2019-05-17T08:18:22.105Z,99.90
2019-05-17T08:21:02.465Z,99.90
2019-05-17T08:23:43.392Z,99.90
2019-05-17T08:26:24.225Z,99.90
2019-05-17T08:29:04.908Z,99.90
2019-05-17T08:31:45.211Z,99.90
2019-05-17T08:34:26.020Z,99.90
2019-05-17T08:37:06.665Z,99.90
2019-05-17T08:39:47.501Z,99.90
2019-05-17T08:42:29.997Z,99.90
2019-05-17T08:45:10.767Z,99.90
2019-05-17T08:47:51.308Z,99.90
2019-05-17T08:50:31.868Z,99.90
2019-05-17T08:53:12.488Z,99.90
2019-05-17T08:55:53.881Z,99.90
2019-05-17T08:58:34.064Z,98.20
2019-05-17T09:01:14.764Z,98.10
2019-05-17T09:03:55.527Z,97.30
2019-05-17T09:06:36.140Z,97.40
2019-05-17T09:09:16.806Z,97.10
2019-05-17T09:11:59.554Z,98.10
2019-05-17T09:14:40.385Z,97.90
2019-05-17T09:17:21.512Z,97.20
2019-05-17T09:20:02.061Z,96.80
2019-05-17T09:22:42.740Z,95.70
2019-05-17T09:25:23.419Z,95.70
2019-05-17T09:28:03.909Z,95.60
2019-05-17T09:30:44.551Z,94.10
2019-05-17T09:33:25.417Z,94.80
2019-05-17T09:36:06.068Z,92.00
2019-05-17T09:38:46.649Z,93.70
2019-05-17T09:41:29.234Z,94.20
2019-05-17T09:44:15.929Z,93.90
2019-05-17T09:46:52.139Z,93.50
2019-05-17T09:49:32.875Z,94.20
2019-05-17T09:52:13.452Z,93.20
2019-05-17T09:54:54.272Z,93.10
2019-05-17T09:57:34.901Z,93.60
2019-05-17T10:00:15.303Z,93.60
2019-05-17T10:02:56.110Z,92.20
2019-05-17T10:05:36.679Z,91.40
2019-05-17T10:08:17.548Z,90.70
2019-05-17T10:11:08.129Z,90.20
2019-05-17T10:13:40.879Z,90.90
2019-05-17T10:16:21.820Z,91.80
2019-05-17T10:19:02.235Z,92.10
2019-05-17T10:21:42.821Z,92.70
2019-05-17T10:24:34.857Z,93.00
2019-05-17T10:27:06.000Z,93.40
2019-05-17T10:29:46.279Z,93.50
2019-05-17T10:32:27.406Z,94.20
2019-05-17T10:35:08.400Z,94.70
2019-05-17T10:37:50.585Z,95.10
2019-05-17T10:40:34.783Z,95.30
2019-05-17T10:43:15.412Z,95.40
2019-05-17T10:45:55.945Z,95.30
2019-05-17T10:48:36.569Z,97.00
2019-05-17T10:51:16.927Z,96.50
2019-05-17T10:53:57.212Z,96.80
2019-05-17T10:56:37.729Z,97.20
2019-05-17T10:59:20.260Z,98.50
2019-05-17T11:02:01.064Z,98.10
2019-05-17T11:04:41.497Z,99.10
2019-05-17T11:07:22.638Z,97.20
2019-05-17T11:10:03.505Z,98.00
2019-05-17T11:12:44.220Z,97.50
2019-05-17T11:15:24.882Z,97.00
2019-05-17T11:18:05.800Z,96.70
2019-05-17T11:20:46.798Z,96.70
2019-05-17T11:23:27.721Z,95.80
2019-05-17T11:26:08.233Z,94.70
2019-05-17T11:31:32.616Z,95.70
2019-05-17T11:34:13.461Z,94.60
2019-05-17T11:36:53.846Z,96.20
2019-05-17T11:39:34.684Z,95.20
2019-05-17T11:42:15.704Z,94.80
2019-05-17T11:44:55.993Z,95.70
2019-05-17T11:47:36.553Z,94.60
2019-05-17T11:50:17.528Z,95.80
2019-05-17T11:52:58.268Z,97.00
2019-05-17T11:55:38.772Z,96.80
2019-05-17T11:58:19.600Z,96.40
2019-05-17T12:01:00.128Z,96.80
2019-05-17T12:03:40.693Z,94.70
2019-05-17T12:06:21.275Z,94.00
2019-05-17T12:11:46.297Z,91.80
2019-05-17T12:14:27.510Z,92.30
2019-05-17T12:17:08.124Z,91.10
2019-05-17T12:19:49.121Z,92.10
2019-05-17T12:22:29.656Z,92.90
2019-05-17T12:25:10.588Z,92.40
2019-05-17T12:27:51.269Z,91.80
2019-05-17T12:30:31.868Z,92.80
2019-05-17T12:33:15.704Z,90.80
2019-05-17T12:35:56.245Z,91.20
2019-05-17T12:38:36.640Z,92.40
2019-05-17T12:41:17.520Z,91.50
2019-05-17T12:43:58.599Z,92.10
2019-05-17T12:46:39.135Z,90.60
2019-05-17T12:52:03.921Z,90.40
2019-05-17T12:54:44.362Z,86.10
2019-05-17T12:57:24.999Z,85.70
2019-05-17T13:00:05.777Z,86.40
2019-05-17T13:02:46.995Z,86.60
2019-05-17T13:05:27.640Z,85.70
2019-05-17T13:08:08.199Z,86.00
2019-05-17T13:10:48.514Z,86.40
2019-05-17T13:13:28.980Z,89.20
2019-05-17T13:16:18.126Z,91.30
2019-05-17T13:18:52.168Z,91.10
2019-05-17T13:21:32.786Z,91.20
2019-05-17T13:24:13.664Z,91.70
2019-05-17T13:26:54.397Z,91.40
2019-05-17T13:29:34.977Z,91.20
2019-05-17T13:32:15.532Z,90.80
2019-05-17T13:34:56.540Z,91.80
2019-05-17T13:37:37.450Z,91.70
2019-05-17T13:40:18.396Z,89.70
2019-05-17T13:42:58.873Z,87.50
2019-05-17T13:45:39.586Z,86.60
2019-05-17T13:48:19.909Z,89.00
2019-05-17T13:51:00.512Z,89.80
2019-05-17T13:53:41.391Z,87.90
2019-05-17T13:56:22.319Z,88.30
2019-05-17T13:59:02.809Z,90.00
2019-05-17T14:01:43.420Z,89.40
2019-05-17T14:04:24.675Z,89.80
2019-05-17T14:07:04.987Z,90.20
2019-05-17T14:09:48.468Z,88.20
2019-05-17T14:12:28.636Z,87.10
2019-05-17T14:15:09.200Z,86.10
2019-05-17T14:17:50.024Z,89.30
2019-05-17T14:20:30.898Z,89.50
2019-05-17T14:23:11.426Z,90.70
2019-05-17T14:25:51.806Z,90.10
2019-05-17T14:28:35.970Z,89.50
2019-05-17T14:31:16.977Z,87.50
2019-05-17T14:33:57.736Z,89.10
2019-05-17T14:39:22.805Z,87.30
2019-05-17T14:42:03.269Z,87.80
2019-05-17T14:44:43.992Z,89.00
2019-05-17T14:47:25.064Z,88.40
2019-05-17T14:50:05.883Z,91.00
2019-05-17T14:52:46.639Z,91.30
2019-05-17T14:55:27.104Z,91.10
2019-05-17T14:58:08.309Z,91.20
2019-05-17T15:00:49.116Z,90.70
2019-05-17T15:03:29.668Z,90.90
2019-05-17T15:06:10.491Z,91.10
2019-05-17T15:08:50.975Z,90.00
2019-05-17T15:11:31.957Z,89.80
2019-05-17T15:14:12.813Z,87.60
2019-05-17T15:16:53.452Z,90.50
2019-05-17T15:19:34.262Z,90.20
2019-05-17T15:22:14.969Z,89.40
2019-05-17T15:24:55.556Z,89.60
2019-05-17T15:27:36.110Z,87.80
2019-05-17T15:30:16.653Z,87.80
2019-05-17T15:32:57.126Z,87.50
2019-05-17T15:35:37.937Z,88.20
2019-05-17T15:38:18.950Z,85.50
2019-05-17T15:40:47.364Z,89.50
2019-05-17T15:43:35.316Z,90.10
2019-05-17T15:46:23.040Z,88.80
2019-05-17T15:49:10.820Z,89.90
2019-05-17T15:51:59.033Z,90.20
2019-05-17T15:54:48.547Z,91.30
2019-05-17T15:57:36.216Z,89.50
2019-05-17T16:00:23.944Z,90.70
2019-05-17T16:03:11.968Z,90.60
2019-05-17T16:05:40.374Z,90.40
2019-05-17T16:08:29.755Z,91.20
2019-05-17T16:11:17.905Z,90.50
2019-05-17T16:14:05.961Z,91.10
2019-05-17T16:16:46.696Z,91.40
2019-05-17T16:19:27.313Z,91.60
2019-05-17T16:22:08.272Z,91.40
2019-05-17T16:24:48.689Z,92.10
2019-05-17T16:27:29.396Z,91.60
2019-05-17T16:30:09.932Z,92.30
2019-05-17T16:32:51.150Z,91.50
2019-05-17T16:35:31.737Z,92.00
2019-05-17T16:38:12.330Z,92.20
2019-05-17T16:40:52.718Z,92.30
2019-05-17T16:43:33.261Z,92.40
2019-05-17T16:46:14.471Z,92.60
2019-05-17T16:48:55.701Z,92.70
2019-05-17T16:51:36.300Z,93.00
2019-05-17T16:54:16.637Z,93.10
2019-05-17T16:56:57.427Z,93.10
2019-05-17T16:59:37.571Z,93.40
2019-05-17T17:02:18.528Z,92.40
2019-05-17T17:04:59.021Z,92.40
2019-05-17T17:07:39.680Z,93.10
2019-05-17T17:10:20.180Z,93.30
2019-05-17T17:13:00.794Z,93.20
2019-05-17T17:15:41.588Z,93.00
2019-05-17T17:18:22.267Z,93.50
2019-05-17T17:21:02.993Z,93.10
2019-05-17T17:23:31.892Z,93.90
2019-05-17T17:26:19.848Z,94.00
2019-05-17T17:29:07.572Z,93.80
2019-05-17T17:31:55.549Z,93.90
2019-05-17T17:34:43.342Z,94.20
2019-05-17T17:37:31.068Z,94.20
2019-05-17T17:40:19.967Z,94.70
2019-05-17T17:43:08.089Z,94.40
2019-05-17T17:45:55.809Z,95.00
2019-05-17T17:48:45.935Z,95.00
2019-05-17T17:51:33.463Z,95.00
2019-05-17T17:54:22.953Z,94.70
2019-05-17T17:57:10.684Z,95.00
2019-05-17T17:59:58.403Z,95.40
2019-05-17T18:02:46.134Z,96.00
2019-05-17T18:05:33.866Z,95.70
2019-05-17T18:08:21.593Z,96.00
2019-05-17T18:11:09.645Z,96.00
2019-05-17T18:14:12.176Z,95.90
2019-05-17T18:16:47.145Z,96.60
2019-05-17T18:19:34.903Z,96.70
2019-05-17T18:22:23.003Z,97.00
2019-05-17T18:25:10.732Z,96.70
2019-05-17T18:27:58.696Z,97.20
2019-05-17T18:30:46.423Z,97.30
2019-05-17T18:33:34.144Z,97.90
2019-05-17T18:36:22.109Z,97.80
2019-05-17T18:39:09.848Z,97.70
2019-05-17T18:41:57.840Z,98.00
2019-05-17T18:44:46.519Z,98.70
2019-05-17T18:47:34.605Z,98.60
2019-05-17T18:53:21.016Z,99.20
2019-05-17T18:56:08.743Z,99.30
2019-05-17T18:58:56.464Z,99.60
2019-05-17T19:01:44.465Z,99.70
2019-05-17T19:04:32.196Z,99.90
2019-05-17T19:07:19.932Z,99.90
2019-05-17T19:10:08.160Z,99.90
2019-05-17T19:12:55.891Z,99.90
2019-05-17T19:15:43.996Z,99.90
2019-05-17T19:18:25.146Z,99.90
2019-05-17T19:21:05.629Z,99.90
2019-05-17T19:23:46.617Z,99.90
2019-05-17T19:26:27.152Z,99.90
2019-05-17T19:29:08.020Z,99.90
2019-05-17T19:31:48.883Z,99.90
2019-05-17T19:34:29.596Z,99.90
2019-05-17T19:37:10.735Z,99.90
2019-05-17T19:39:51.523Z,99.90
2019-05-17T19:42:32.230Z,99.90
2019-05-17T19:45:12.913Z,99.90
2019-05-17T19:47:53.521Z,99.90
2019-05-17T19:50:34.232Z,99.90
2019-05-17T19:53:14.941Z,99.90
2019-05-17T19:55:55.377Z,99.90
2019-05-17T19:58:35.580Z,99.90
2019-05-17T20:01:16.412Z,99.90
2019-05-17T20:03:57.232Z,99.90
2019-05-17T20:06:37.984Z,99.90
2019-05-17T20:09:18.556Z,99.90
2019-05-17T20:11:59.312Z,99.90
2019-05-17T20:14:40.148Z,99.90
2019-05-17T20:17:21.108Z,99.90
2019-05-17T20:20:02.297Z,99.90
2019-05-17T20:22:42.684Z,99.90
2019-05-17T20:25:23.500Z,99.90
2019-05-17T20:28:03.885Z,99.90
2019-05-17T20:30:44.891Z,99.90
2019-05-17T20:33:25.632Z,99.90
2019-05-17T20:36:06.300Z,99.90
2019-05-17T20:38:47.069Z,99.90
2019-05-17T20:41:27.734Z,99.90
2019-05-17T20:44:08.713Z,99.90
2019-05-17T20:46:49.569Z,99.90
2019-05-17T20:49:30.181Z,99.90
2019-05-17T20:52:10.651Z,99.90
2019-05-17T20:54:51.239Z,99.90
2019-05-17T20:57:31.813Z,99.90
2019-05-17T21:00:13.787Z,99.90
2019-05-17T21:02:54.656Z,99.90
2019-05-17T21:05:35.780Z,99.90
2019-05-17T21:08:16.140Z,99.90
2019-05-17T21:10:56.988Z,99.90
2019-05-17T21:13:37.708Z,99.90
2019-05-17T21:16:18.409Z,99.90
2019-05-17T21:18:59.227Z,99.90
2019-05-17T21:21:39.602Z,99.90
2019-05-17T21:27:04.777Z,99.90
2019-05-17T21:29:46.059Z,99.90
2019-05-17T21:32:27.030Z,99.90
2019-05-17T21:35:07.647Z,99.90
2019-05-17T21:37:48.829Z,99.90
2019-05-17T21:40:29.924Z,99.90
2019-05-17T21:43:10.516Z,99.90
2019-05-17T21:46:03.109Z,99.90
2019-05-17T21:48:34.797Z,99.90
2019-05-17T21:51:15.651Z,99.90
2019-05-17T21:53:56.147Z,99.90
2019-05-17T21:56:36.892Z,99.90
2019-05-17T21:59:17.593Z,99.90
2019-05-17T22:01:58.245Z,99.90
2019-05-17T22:04:38.728Z,99.90
2019-05-17T22:07:19.647Z,99.90
2019-05-17T22:10:00.132Z,99.90
2019-05-17T22:12:40.618Z,99.90
2019-05-17T22:15:21.412Z,99.90
2019-05-17T22:18:02.000Z,99.90
2019-05-17T22:20:42.468Z,99.90
2019-05-17T22:23:22.956Z,99.90
2019-05-17T22:26:03.851Z,99.90
2019-05-17T22:28:44.543Z,99.90
2019-05-17T22:31:25.268Z,99.90
2019-05-17T22:34:05.795Z,99.90
2019-05-17T22:36:46.544Z,99.90
2019-05-17T22:39:27.687Z,99.90
2019-05-17T22:42:08.832Z,99.90
2019-05-17T22:44:49.376Z,99.90
2019-05-17T22:47:29.934Z,99.90
2019-05-17T22:50:10.407Z,99.90
2019-05-17T22:52:50.792Z,99.90
2019-05-17T22:55:31.502Z,99.90
2019-05-17T22:58:11.928Z,99.90
2019-05-17T23:00:52.431Z,99.90
2019-05-17T23:03:32.793Z,99.90
2019-05-17T23:06:13.751Z,99.90
2019-05-17T23:08:54.432Z,99.90
2019-05-17T23:11:35.344Z,99.90
2019-05-17T23:14:15.978Z,99.90
2019-05-17T23:16:56.805Z,99.90
2019-05-17T23:19:37.254Z,99.90
2019-05-17T23:22:17.469Z,99.90
2019-05-17T23:24:58.736Z,99.90
2019-05-17T23:27:39.988Z,99.90
2019-05-17T23:30:20.797Z,99.90
2019-05-17T23:33:01.371Z,99.90
2019-05-17T23:35:41.748Z,99.90
2019-05-17T23:38:22.340Z,99.90
2019-05-17T23:41:02.717Z,99.90
2019-05-17T23:43:43.226Z,99.90
2019-05-17T23:46:23.787Z,99.90
2019-05-17T23:49:04.452Z,99.90
2019-05-17T23:51:45.011Z,99.90
2019-05-17T23:54:25.216Z,99.90
2019-05-17T23:57:05.982Z,99.90
2019-05-17T23:59:46.492Z,99.90
